Simmons Army Air Field Fort Bragg US
ICAO: KFBG
IATA: FBG
Category: Medium
Scheduled Services: No

Elevation: 244 ft
TransAlt. 18000 ft.

Airport Communications:
FAYETTEVILLE APP/DEP:133
FLT ADVSY:125.9
ATIS:139.25
GND/CLNC DEL:121.9
RANGE RDO:46.75
BASE OPS:142.35
PMSV METRO:141.25
TWR:125.9

KFBG Zoom In..

Runways:

(A) RW 09 length 5011 ft width 110 ft
---- / hdg 93

(B) RW 27 length 5011 ft width 110 ft
---- / hdg 273

Location; KFBG
Day. 25 / Time. 11.58 Zulu
* Altimeter: 29.74
* Temperature: 15° c. 59°f.
* Wind from: 210° Speed 05 kn.
Dewpoint: 15° c.
Visibility: 10 Statute Miles.
Clouds: Broken 900 ft.
Clouds: Overcast 1400 ft.

KFBG 251158Z AUTO 21005KT 10SM BKN009 OVC014 15/15 A2974 RMK AO2 SLP073 $


Wind From 210°
Speed 05 kn.

  YouTube Music Video
 
jpsmedia.com for Web Design  worldairports.se 2018   terms of use